Time;durP1;ratioP1;P1;durP2;ratioP2;P2;SDS_P1;SDS_P2;PMS_P1;PMS_P2;Temp;Humidity;BMP_temperature;BMP_pressure;BME280_temperature;BME280_humidity;BME280_pressure;Samples;Min_cycle;Max_cycle;Signal;HPM_P1;HPM_P2
2022/03/24 00:01:10;;;;;;;0.20;0.20;;;;;;;9.38;38.28;101270.44;5092841;28;20035;-71
2022/03/24 00:03:39;;;;;;;0.20;0.20;;;;;;;9.39;37.88;101266.53;5093737;28;20024;-70
2022/03/24 00:06:05;;;;;;;0.20;0.20;;;;;;;9.43;36.79;101258.34;5092907;28;20120;-72
2022/03/24 00:08:31;;;;;;;0.20;0.20;;;;;;;9.44;36.86;101269.13;5092891;28;20032;-71
2022/03/24 00:11:00;;;;;;;0.20;0.20;;;;;;;9.42;36.70;101274.19;5093343;28;20028;-72
2022/03/24 00:13:29;;;;;;;0.20;0.20;;;;;;;9.47;36.76;101262.09;5092775;28;20020;-71
2022/03/24 00:15:55;;;;;;;0.20;0.20;;;;;;;9.54;36.90;101256.06;5093313;28;20028;-72
2022/03/24 00:18:30;;;;;;;0.20;0.20;;;;;;;9.44;37.12;101252.47;5093373;28;20081;-71
2022/03/24 00:20:58;;;;;;;0.20;0.20;;;;;;;9.57;36.43;101247.03;5092738;28;20115;-73
2022/03/24 00:23:24;;;;;;;0.20;0.20;;;;;;;9.45;36.50;101254.09;5072467;28;20048;-71
2022/03/24 00:25:57;;;;;;;0.20;0.20;;;;;;;9.26;38.16;101259.16;5072739;28;20101;-72
2022/03/24 00:28:26;;;;;;;0.20;0.20;;;;;;;9.15;36.36;101255.09;5074648;28;20024;-71
2022/03/24 00:30:51;;;;;;;0.20;0.20;;;;;;;8.99;37.05;101242.84;5072638;28;20032;-71
2022/03/24 00:33:17;;;;;;;0.20;0.20;;;;;;;9.04;37.60;101254.59;5072700;28;20475;-71
2022/03/24 00:35:43;;;;;;;0.20;0.20;;;;;;;9.01;36.97;101248.91;5072377;28;20099;-72
2022/03/24 00:38:12;;;;;;;0.20;0.20;;;;;;;8.99;37.13;101245.63;5072026;28;20488;-71
2022/03/24 00:40:41;;;;;;;0.20;0.20;;;;;;;8.95;38.74;101244.63;5072075;28;20043;-71
2022/03/24 00:43:08;;;;;;;0.20;0.20;;;;;;;8.86;37.66;101241.88;5072543;28;20422;-71
2022/03/24 00:45:34;;;;;;;0.20;0.20;;;;;;;8.84;37.70;101239.44;5072097;28;20383;-72
2022/03/24 00:47:59;;;;;;;0.20;0.20;;;;;;;8.76;37.54;101236.63;5071811;28;20020;-72
2022/03/24 00:50:33;;;;;;;0.20;0.20;;;;;;;8.74;37.24;101236.16;5072032;28;20090;-72
2022/03/24 00:52:58;;;;;;;0.20;0.20;;;;;;;8.71;38.24;101237.59;5071785;28;20028;-73
2022/03/24 00:55:30;;;;;;;0.20;0.20;;;;;;;8.73;37.56;101249.19;5071752;28;20032;-71
2022/03/24 00:57:56;;;;;;;0.20;0.20;;;;;;;8.59;37.65;101223.56;5071925;28;20042;-71
2022/03/24 01:00:27;;;;;;;0.20;0.20;;;;;;;8.63;38.04;101230.09;5072224;28;20033;-70
2022/03/24 01:02:54;;;;;;;0.20;0.20;;;;;;;8.61;37.33;101232.38;5073754;28;20021;-73
2022/03/24 01:05:22;;;;;;;0.20;0.20;;;;;;;8.60;37.80;101234.31;5072688;28;20039;-72
2022/03/24 01:07:50;;;;;;;0.20;0.20;;;;;;;8.58;37.39;101238.59;5072315;28;20028;-72
2022/03/24 01:10:21;;;;;;;0.20;0.20;;;;;;;8.71;36.73;101226.50;5072016;28;20021;-72
2022/03/24 01:12:47;;;;;;;0.20;0.20;;;;;;;8.63;37.53;101224.56;5075948;28;20348;-72
2022/03/24 01:15:17;;;;;;;0.20;0.20;;;;;;;8.47;37.82;101217.81;5075392;28;20037;-72
2022/03/24 01:17:51;;;;;;;0.20;0.20;;;;;;;8.53;37.90;101228.47;5092400;28;20029;-71
2022/03/24 01:20:19;;;;;;;0.20;0.20;;;;;;;8.75;37.46;101223.91;5075777;28;20489;-72
2022/03/24 01:22:56;;;;;;;0.20;0.20;;;;;;;8.65;36.72;101222.25;5097467;28;20078;-72
2022/03/24 01:25:27;;;;;;;0.20;0.20;;;;;;;8.54;37.52;101218.16;5097558;28;20031;-72
2022/03/24 01:27:53;;;;;;;0.20;0.20;;;;;;;8.58;37.38;101224.72;5096922;28;20028;-72
2022/03/24 01:30:51;;;;;;;0.20;0.20;;;;;;;8.52;38.17;101225.97;5096094;28;20063;-72
2022/03/24 01:33:17;;;;;;;0.20;0.20;;;;;;;8.48;38.53;101222.25;5096209;28;20028;-73
2022/03/24 01:38:57;;;;;;;0.20;0.20;;;;;;;8.59;36.65;101216.06;5095383;28;20039;-71
2022/03/24 01:41:26;;;;;;;0.20;0.20;;;;;;;8.60;37.29;101227.97;5096078;28;20073;-72
2022/03/24 01:43:54;;;;;;;0.20;0.20;;;;;;;8.63;35.82;101219.00;5096846;28;20063;-72
2022/03/24 01:46:56;;;;;;;0.20;0.20;;;;;;;8.56;36.76;101221.44;5096151;28;20051;-72
2022/03/24 01:49:31;;;;;;;0.20;0.20;;;;;;;8.58;36.75;101210.84;5095219;28;20123;-72
2022/03/24 01:51:58;;;;;;;0.20;0.20;;;;;;;8.69;35.72;101209.38;5095108;28;20059;-72
2022/03/24 01:54:30;;;;;;;0.20;0.20;;;;;;;8.62;36.79;101211.81;5095383;28;20070;-72
2022/03/24 01:56:59;;;;;;;0.20;0.20;;;;;;;8.55;37.31;101209.53;5095666;28;20409;-72
2022/03/24 01:59:25;;;;;;;0.20;0.20;;;;;;;8.55;36.62;101203.97;5094929;28;20543;-72
2022/03/24 02:01:51;;;;;;;0.20;0.20;;;;;;;8.52;37.62;101203.78;5095251;28;20024;-72
2022/03/24 02:04:35;;;;;;;0.20;0.20;;;;;;;8.55;36.69;101203.16;5094851;28;20030;-72
2022/03/24 02:07:08;;;;;;;0.20;0.20;;;;;;;8.46;37.47;101202.31;5079573;28;20042;-71
2022/03/24 02:09:44;;;;;;;0.20;0.20;;;;;;;8.53;36.82;101199.91;5094907;28;20059;-71
2022/03/24 02:12:11;;;;;;;0.20;0.20;;;;;;;8.48;36.49;101197.28;5094743;28;20020;-72
2022/03/24 02:14:41;;;;;;;0.20;0.20;;;;;;;8.51;36.55;101191.88;5095373;28;20126;-71
2022/03/24 02:17:17;;;;;;;0.20;0.20;;;;;;;8.43;37.92;101200.22;5094626;28;20024;-72
2022/03/24 02:19:46;;;;;;;0.20;0.20;;;;;;;8.39;36.85;101197.25;5095140;28;20032;-71
2022/03/24 02:22:55;;;;;;;0.20;0.20;;;;;;;8.37;37.13;101205.91;5093378;28;20475;-72
2022/03/24 02:25:27;;;;;;;0.20;0.20;;;;;;;8.42;36.32;101198.59;5094513;28;20027;-72
2022/03/24 02:28:03;;;;;;;0.20;0.20;;;;;;;8.43;36.28;101208.53;5096084;28;20028;-72
2022/03/24 02:30:32;;;;;;;0.20;0.20;;;;;;;8.32;37.94;101206.03;5094366;28;20027;-72
2022/03/24 02:32:58;;;;;;;0.20;0.20;;;;;;;8.22;38.71;101189.69;5094674;28;20031;-72
2022/03/24 02:35:51;;;;;;;0.20;0.20;;;;;;;8.21;37.74;101201.13;5094262;28;20066;-72
2022/03/24 02:38:19;;;;;;;0.20;0.20;;;;;;;8.39;36.92;101206.38;5094741;28;20028;-72
2022/03/24 02:40:52;;;;;;;0.20;0.20;;;;;;;8.35;37.85;101210.91;5094394;28;20467;-72
2022/03/24 02:43:21;;;;;;;0.20;0.20;;;;;;;8.24;37.45;101204.03;5094616;28;20055;-72
2022/03/24 02:46:06;;;;;;;0.20;0.20;;;;;;;8.25;39.57;101211.22;5094597;28;20024;-72
2022/03/24 02:48:31;;;;;;;0.20;0.20;;;;;;;8.27;38.73;101208.94;5094495;28;20375;-73
2022/03/24 02:50:59;;;;;;;0.20;0.20;;;;;;;8.25;38.32;101211.22;5093894;28;20028;-72
2022/03/24 02:53:57;;;;;;;0.20;0.20;;;;;;;8.23;38.11;101213.50;5093898;28;20036;-71
2022/03/24 02:56:23;;;;;;;0.20;0.20;;;;;;;8.12;39.04;101206.63;5094099;28;20055;-71
2022/03/24 02:58:48;;;;;;;0.20;0.20;;;;;;;8.12;39.88;101220.47;5093825;28;20390;-72
2022/03/24 03:01:53;;;;;;;0.20;0.20;;;;;;;8.12;39.39;101207.44;5093744;28;20027;-72
2022/03/24 03:04:22;;;;;;;0.20;0.20;;;;;;;8.16;39.43;101207.63;5093988;28;20122;-71
2022/03/24 03:06:48;;;;;;;0.20;0.20;;;;;;;8.14;38.45;101207.91;5093521;28;20028;-71
2022/03/24 03:09:16;;;;;;;0.30;0.30;;;;;;;8.18;39.19;101199.78;5094189;28;20028;-72
2022/03/24 03:11:48;;;;;;;0.20;0.20;;;;;;;8.20;38.71;101208.59;5093577;28;20024;-72
2022/03/24 03:14:29;;;;;;;0.20;0.20;;;;;;;8.18;38.57;101198.97;5094249;28;20070;-72
2022/03/24 03:16:56;;;;;;;0.20;0.20;;;;;;;8.17;38.66;101209.25;5093555;28;20032;-72
2022/03/24 03:19:23;;;;;;;0.20;0.20;;;;;;;8.13;39.07;101213.78;5093563;28;20028;-72
2022/03/24 03:21:52;;;;;;;0.20;0.20;;;;;;;8.03;38.77;101203.00;5094128;28;20129;-71
2022/03/24 03:24:32;;;;;;;0.20;0.20;;;;;;;8.02;38.61;101215.22;5093989;28;20028;-72
2022/03/24 03:26:58;;;;;;;0.20;0.20;;;;;;;7.99;39.00;101218.63;5093387;28;20032;-72
2022/03/24 03:29:27;;;;;;;0.22;0.22;;;;;;;7.99;39.50;101218.63;5093151;28;20054;-72
2022/03/24 03:31:55;;;;;;;0.20;0.20;;;;;;;7.96;38.89;101213.75;5093335;28;20040;-71
2022/03/24 03:34:24;;;;;;;0.20;0.20;;;;;;;7.99;39.37;101213.06;5093025;28;20085;-72
2022/03/24 03:37:08;;;;;;;0.20;0.20;;;;;;;7.95;39.48;101214.88;5094345;28;20116;-71
2022/03/24 03:39:34;;;;;;;0.20;0.20;;;;;;;7.92;39.73;101219.09;5093967;28;20386;-71
2022/03/24 03:42:00;;;;;;;0.20;0.20;;;;;;;7.93;39.99;101219.91;5094094;28;20051;-72
2022/03/24 03:44:29;;;;;;;0.20;0.20;;;;;;;7.97;40.73;101215.38;5094516;28;20066;-72
2022/03/24 03:46:55;;;;;;;0.20;0.20;;;;;;;7.92;40.42;101204.44;5092952;28;20035;-72
2022/03/24 03:49:21;;;;;;;0.20;0.20;;;;;;;7.91;39.99;101213.88;5093558;28;20028;-71
2022/03/24 03:51:50;;;;;;;0.20;0.20;;;;;;;7.88;40.92;101215.31;5093549;28;20074;-72
2022/03/24 03:54:16;;;;;;;0.20;0.20;;;;;;;7.85;41.89;101219.56;5093473;28;20055;-72
2022/03/24 03:56:42;;;;;;;0.20;0.20;;;;;;;7.84;41.72;101217.94;5093109;28;20381;-72
2022/03/24 03:59:07;;;;;;;0.20;0.20;;;;;;;7.86;41.69;101212.88;5093532;28;20028;-71
2022/03/24 04:01:34;;;;;;;0.20;0.20;;;;;;;7.65;40.61;101216.53;5092803;28;20456;-71
2022/03/24 04:04:00;;;;;;;0.20;0.20;;;;;;;7.70;41.71;101217.19;5092692;28;20024;-71
2022/03/24 04:06:32;;;;;;;0.20;0.20;;;;;;;7.72;41.82;101220.47;5094405;28;20110;-72
2022/03/24 04:09:01;;;;;;;0.20;0.20;;;;;;;7.68;40.80;101219.50;5093153;28;20367;-72
2022/03/24 04:11:26;;;;;;;0.20;0.20;;;;;;;7.64;40.82;101220.44;5093271;28;20105;-71
2022/03/24 04:13:53;;;;;;;0.20;0.20;;;;;;;7.51;41.54;101233.22;5092694;28;20470;-72
2022/03/24 04:16:22;;;;;;;0.25;0.25;;;;;;;7.40;40.92;101231.84;5092571;28;20086;-71
2022/03/24 04:18:51;;;;;;;0.20;0.20;;;;;;;7.39;40.15;101231.03;5093531;28;20046;-72
2022/03/24 04:21:18;;;;;;;0.20;0.20;;;;;;;7.43;39.87;101228.47;5095338;28;20494;-72
2022/03/24 04:23:44;;;;;;;0.20;0.20;;;;;;;7.29;39.80;101234.88;5097001;28;20470;-72
2022/03/24 04:26:18;;;;;;;0.20;0.20;;;;;;;7.25;40.29;101238.63;5096322;28;20032;-72
2022/03/24 04:28:47;;;;;;;0.20;0.20;;;;;;;7.32;38.81;101239.78;5096416;28;20035;-71
2022/03/24 04:31:13;;;;;;;0.20;0.20;;;;;;;7.37;39.80;101244.38;5096038;28;20024;-72
2022/03/24 04:33:48;;;;;;;0.22;0.22;;;;;;;7.33;38.58;101246.97;5095839;28;20023;-72
2022/03/24 04:36:14;;;;;;;0.20;0.20;;;;;;;7.23;38.95;101251.94;5096128;28;20031;-72
2022/03/24 04:38:44;;;;;;;0.20;0.20;;;;;;;7.27;38.37;101248.22;5096555;28;20028;-72
2022/03/24 04:41:13;;;;;;;0.20;0.20;;;;;;;7.24;39.46;101240.53;5098081;28;20533;-72
2022/03/24 04:43:38;;;;;;;0.20;0.20;;;;;;;7.18;39.81;101233.50;5097349;28;20123;-71
2022/03/24 04:46:05;;;;;;;0.20;0.20;;;;;;;7.23;39.92;101240.84;5097317;28;20505;-72
2022/03/24 04:48:37;;;;;;;0.20;0.20;;;;;;;7.37;39.00;101240.81;5099566;28;20028;-72
2022/03/24 04:51:07;;;;;;;0.20;0.20;;;;;;;7.32;39.44;101239.78;5099626;28;20027;-71
2022/03/24 04:53:34;;;;;;;0.20;0.20;;;;;;;7.30;39.04;101241.25;5099577;28;20059;-71
2022/03/24 04:56:02;;;;;;;0.20;0.20;;;;;;;7.25;40.16;101238.63;5099507;28;20059;-72
2022/03/24 04:58:28;;;;;;;0.20;0.20;;;;;;;7.25;39.29;101244.16;5099452;28;20031;-72
2022/03/24 05:00:54;;;;;;;0.20;0.20;;;;;;;7.24;40.02;101242.47;5099393;28;20085;-71
2022/03/24 05:03:22;;;;;;;0.20;0.20;;;;;;;7.23;39.01;101238.91;5099779;28;20118;-73
2022/03/24 05:05:56;;;;;;;0.20;0.20;;;;;;;7.39;38.88;101241.28;5100037;28;20034;-72
2022/03/24 05:08:25;;;;;;;0.20;0.20;;;;;;;7.48;38.86;101242.19;5099905;28;20024;-72
2022/03/24 05:10:50;;;;;;;0.20;0.20;;;;;;;7.55;38.13;101246.13;5099703;28;20511;-71
2022/03/24 05:13:26;;;;;;;0.20;0.20;;;;;;;7.56;39.41;101244.16;5099359;28;20032;-72
2022/03/24 05:15:56;;;;;;;0.20;0.20;;;;;;;7.81;39.49;101245.44;5099941;28;20388;-71
2022/03/24 05:18:24;;;;;;;0.20;0.20;;;;;;;8.12;39.36;101250.97;5099339;28;20031;-72
2022/03/24 05:20:53;;;;;;;0.20;0.20;;;;;;;8.63;39.69;101257.84;5099152;28;20063;-71
2022/03/24 05:23:21;;;;;;;0.20;0.20;;;;;;;9.08;37.61;101258.38;5117207;28;20043;-71
2022/03/24 05:25:49;;;;;;;0.20;0.20;;;;;;;9.58;37.24;101257.00;5099118;28;20036;-72
2022/03/24 05:28:16;;;;;;;0.20;0.20;;;;;;;10.07;35.25;101271.44;5099622;28;20029;-72
2022/03/24 05:30:42;;;;;;;0.20;0.20;;;;;;;10.65;34.45;101261.50;5117212;28;20036;-72
2022/03/24 05:33:19;;;;;;;0.20;0.20;;;;;;;11.17;33.77;101277.81;5098878;28;20055;-72
2022/03/24 05:35:56;;;;;;;0.20;0.20;;;;;;;11.66;32.79;101266.88;5098908;28;20023;-72
2022/03/24 05:38:24;;;;;;;0.20;0.20;;;;;;;12.13;32.63;101281.31;5099470;28;20028;-71
2022/03/24 05:40:53;;;;;;;0.20;0.20;;;;;;;12.61;32.14;101287.25;5098961;28;20051;-72
2022/03/24 05:43:27;;;;;;;0.20;0.20;;;;;;;13.08;31.09;101293.13;5098294;28;20545;-73
2022/03/24 05:45:55;;;;;;;0.20;0.20;;;;;;;13.35;30.55;101291.56;5098604;28;20034;-71
2022/03/24 05:48:24;;;;;;;0.20;0.20;;;;;;;13.67;29.24;101291.66;5099033;28;20116;-71
2022/03/24 05:50:57;;;;;;;0.20;0.20;;;;;;;14.16;28.56;101287.38;5099078;28;20035;-72
2022/03/24 05:53:23;;;;;;;;;;;;;;;14.60;28.27;101286.53;5099448;28;20386;-71
2022/03/24 05:55:52;;;;;;;0.20;0.20;;;;;;;15.04;27.61;101289.13;5098517;28;19907;-72
2022/03/24 05:58:17;;;;;;;0.20;0.20;;;;;;;15.29;27.03;101287.69;5098248;28;20035;-71
2022/03/24 06:00:43;;;;;;;0.20;0.20;;;;;;;15.61;27.29;101284.72;5098607;28;20036;-72
2022/03/24 06:03:15;;;;;;;0.20;0.20;;;;;;;15.86;26.68;101297.25;5098188;28;20152;-74
2022/03/24 06:05:44;;;;;;;0.20;0.20;;;;;;;16.29;26.89;101288.78;5098355;28;20027;-71
2022/03/24 06:08:11;;;;;;;0.20;0.20;;;;;;;16.74;26.14;101297.22;5098484;28;20027;-72
2022/03/24 06:10:37;;;;;;;0.20;0.20;;;;;;;17.19;25.52;101294.63;5097989;28;20032;-73
2022/03/24 06:13:06;;;;;;;0.20;0.20;;;;;;;17.53;24.90;101287.03;5098226;28;20077;-72
2022/03/24 06:15:32;;;;;;;0.10;0.10;;;;;;;17.66;24.60;101290.38;5097937;28;20031;-72
2022/03/24 06:17:58;;;;;;;0.20;0.20;;;;;;;17.86;24.40;101271.34;5097855;28;20028;-70
2022/03/24 06:20:24;;;;;;;0.20;0.20;;;;;;;18.28;23.67;101291.47;5097978;28;20024;-71
2022/03/24 06:22:53;;;;;;;0.20;0.20;;;;;;;18.49;23.40;101301.31;5097199;28;20059;-69
2022/03/24 06:25:20;;;;;;;0.20;0.20;;;;;;;17.71;23.95;101307.75;5115811;28;20197;-70
2022/03/24 06:27:52;;;;;;;0.20;0.20;;;;;;;16.23;26.15;101303.16;5097523;28;20084;-71
2022/03/24 06:30:20;;;;;;;0.20;0.20;;;;;;;15.50;27.11;101306.94;5097426;28;20023;-72
2022/03/24 06:32:46;;;;;;;0.20;0.20;;;;;;;15.71;26.83;101304.59;5098313;28;20027;-72
2022/03/24 06:35:18;;;;;;;0.15;0.15;;;;;;;16.35;26.15;101292.91;5097007;28;20039;-72
2022/03/24 06:37:44;;;;;;;0.20;0.20;;;;;;;17.00;25.23;101306.81;5097437;28;20030;-72
2022/03/24 06:40:11;;;;;;;0.20;0.20;;;;;;;17.01;24.34;101308.44;5097476;28;20386;-72
2022/03/24 06:42:37;;;;;;;0.20;0.20;;;;;;;17.29;23.26;101310.84;5097937;28;20059;-70
2022/03/24 06:45:07;;;;;;;0.20;0.20;;;;;;;18.09;22.60;101305.75;5097255;28;20478;-70
2022/03/24 06:47:34;;;;;;;0.20;0.20;;;;;;;18.38;22.22;101306.06;5097062;28;20501;-72
2022/03/24 06:50:00;;;;;;;0.15;0.15;;;;;;;19.10;20.93;101305.38;5097396;28;20474;-71
2022/03/24 06:52:28;;;;;;;0.10;0.10;;;;;;;18.85;21.23;101316.50;5097357;28;20084;-71
2022/03/24 06:54:54;;;;;;;0.20;0.20;;;;;;;19.46;20.71;101311.22;5096979;28;20027;-73
2022/03/24 06:57:26;;;;;;;0.20;0.20;;;;;;;19.92;20.17;101313.41;5097352;28;20035;-71
2022/03/24 06:59:51;;;;;;;0.20;0.20;;;;;;;19.59;19.88;101306.84;5096909;28;20058;-71
2022/03/24 07:02:23;;;;;;;0.20;0.20;;;;;;;19.47;20.66;101312.81;5097189;28;20055;-71
2022/03/24 07:04:49;;;;;;;0.20;0.20;;;;;;;19.58;20.64;101316.50;5096990;28;20540;-72
2022/03/24 07:07:20;;;;;;;0.10;0.10;;;;;;;19.73;20.21;101312.56;5096533;28;20123;-72
2022/03/24 07:09:49;;;;;;;0.20;0.20;;;;;;;19.58;20.90;101316.50;5096111;28;20031;-71
2022/03/24 07:12:19;;;;;;;0.10;0.10;;;;;;;20.30;20.11;101306.22;5096610;28;20110;-70
2022/03/24 07:14:45;;;;;;;0.10;0.10;;;;;;;20.53;20.30;101312.31;5096480;28;20031;-71
2022/03/24 07:17:15;;;;;;;0.20;0.20;;;;;;;19.97;20.26;101310.19;5096273;28;20039;-72
2022/03/24 07:19:46;;;;;;;0.20;0.20;;;;;;;21.08;20.19;101303.34;5096448;28;20085;-73
2022/03/24 07:22:12;;;;;;;0.10;0.10;;;;;;;21.24;19.72;101302.88;5092549;28;20044;-71
2022/03/24 07:24:41;;;;;;;0.10;0.10;;;;;;;21.59;20.15;101313.31;5093259;28;20035;-72
2022/03/24 07:27:07;;;;;;;0.10;0.10;;;;;;;21.10;19.36;101309.41;5093502;28;20096;-71
2022/03/24 07:29:32;;;;;;;0.10;0.10;;;;;;;20.67;19.52;101308.69;5092584;28;20477;-72
2022/03/24 07:32:01;;;;;;;0.10;0.10;;;;;;;21.13;19.13;101316.25;5076224;28;20036;-70
2022/03/24 07:34:28;;;;;;;0.10;0.10;;;;;;;21.03;19.18;101312.25;5093536;28;20027;-73
2022/03/24 07:36:54;;;;;;;0.10;0.10;;;;;;;21.21;18.02;101306.56;5092769;28;20024;-72
2022/03/24 07:39:22;;;;;;;0.10;0.10;;;;;;;20.29;18.56;101319.50;5093018;28;20078;-72
2022/03/24 07:41:48;;;;;;;0.10;0.10;;;;;;;20.63;18.66;101314.31;5092572;28;20036;-72
2022/03/24 07:44:17;;;;;;;0.20;0.20;;;;;;;21.02;18.58;101313.47;5092464;28;20025;-72
2022/03/24 07:46:43;;;;;;;0.10;0.10;;;;;;;21.76;18.21;101322.94;5092519;28;20097;-70
2022/03/24 07:49:09;;;;;;;0.10;0.10;;;;;;;21.58;18.53;101327.91;5092395;28;20028;-72
2022/03/24 07:51:38;;;;;;;0.10;0.10;;;;;;;22.23;17.83;101324.31;5093008;28;20031;-72
2022/03/24 07:54:11;;;;;;;0.10;0.10;;;;;;;21.55;18.13;101328.69;5093054;28;20031;-72
2022/03/24 07:56:40;;;;;;;0.20;0.20;;;;;;;21.63;17.23;101319.78;5092537;28;20044;-71
2022/03/24 07:59:08;;;;;;;0.10;0.10;;;;;;;21.73;17.42;101323.75;5092330;28;20035;-71
2022/03/24 08:01:36;;;;;;;0.10;0.10;;;;;;;21.10;17.76;101320.72;5092554;28;20024;-71
2022/03/24 08:04:06;;;;;;;0.10;0.10;;;;;;;20.84;18.31;101336.13;5092927;28;20489;-72
2022/03/24 08:06:36;;;;;;;0.10;0.10;;;;;;;21.23;18.41;101340.91;5093334;28;20474;-70
2022/03/24 08:09:01;;;;;;;0.10;0.10;;;;;;;21.97;18.36;101334.16;5092032;28;20085;-71
2022/03/24 08:11:30;;;;;;;0.10;0.10;;;;;;;21.74;18.81;101339.56;5092797;28;20031;-71
2022/03/24 08:13:59;;;;;;;0.10;0.10;;;;;;;22.20;18.49;101338.50;5092564;28;20434;-72
2022/03/24 08:16:27;;;;;;;0.10;0.10;;;;;;;21.97;18.83;101337.00;5092252;28;20036;-70
2022/03/24 08:18:56;;;;;;;0.10;0.10;;;;;;;21.56;19.19;101341.63;5092239;28;20119;-70
2022/03/24 08:21:25;;;;;;;0.10;0.10;;;;;;;21.80;19.28;101340.72;5096782;28;20028;-71
2022/03/24 08:23:51;;;;;;;0.10;0.10;;;;;;;21.21;19.93;101334.84;5099869;28;20032;-70
2022/03/24 08:26:19;;;;;;;0.10;0.10;;;;;;;21.06;20.09;101347.41;5100421;28;20110;-70
2022/03/24 08:28:48;;;;;;;0.10;0.10;;;;;;;21.08;19.30;101340.13;5100099;28;20028;-71
2022/03/24 08:31:16;;;;;;;0.10;0.10;;;;;;;20.90;19.72;101345.81;5099737;28;20127;-71
2022/03/24 08:33:48;;;;;;;0.10;0.10;;;;;;;21.32;19.36;101349.81;5099994;28;20027;-71
2022/03/24 08:36:16;;;;;;;0.10;0.10;;;;;;;20.48;20.13;101359.97;5100201;28;20031;-70
2022/03/24 08:38:44;;;;;;;0.20;0.20;;;;;;;20.92;19.78;101359.53;5099622;28;20032;-70
2022/03/24 08:41:13;;;;;;;0.15;0.15;;;;;;;20.91;19.43;101360.75;5099057;28;20035;-71
2022/03/24 08:43:39;;;;;;;0.10;0.10;;;;;;;20.79;19.74;101364.00;5099380;28;20032;-71
2022/03/24 08:46:09;;;;;;;0.20;0.20;;;;;;;20.56;19.99;101364.41;5099255;28;20092;-71
2022/03/24 08:48:35;;;;;;;0.10;0.10;;;;;;;21.10;19.88;101362.38;5099364;28;20164;-71
2022/03/24 08:51:06;;;;;;;0.10;0.10;;;;;;;21.15;19.76;101370.44;5099079;28;20137;-70
2022/03/24 08:53:34;;;;;;;0.10;0.10;;;;;;;21.36;19.98;101364.78;5099438;28;20497;-70
2022/03/24 08:56:00;;;;;;;0.20;0.20;;;;;;;21.55;19.66;101359.84;5099357;28;20035;-70
2022/03/24 08:58:29;;;;;;;0.10;0.10;;;;;;;21.51;19.42;101367.53;5099780;28;20115;-70
2022/03/24 09:00:57;;;;;;;0.10;0.10;;;;;;;21.54;19.05;101367.53;5083185;28;20055;-70
2022/03/24 09:03:23;;;;;;;0.10;0.10;;;;;;;21.22;19.85;101359.09;5099042;28;20024;-70
2022/03/24 09:05:49;;;;;;;0.10;0.10;;;;;;;21.31;20.21;101368.03;5099115;28;20058;-71
2022/03/24 09:08:17;;;;;;;0.10;0.10;;;;;;;20.66;20.88;101370.06;5082954;28;20038;-71
2022/03/24 09:10:43;;;;;;;0.20;0.20;;;;;;;22.03;19.61;101364.91;5098979;28;20020;-70
2022/03/24 09:13:12;;;;;;;0.10;0.10;;;;;;;21.85;19.57;101362.97;5099195;28;20119;-70
2022/03/24 09:15:38;;;;;;;0.10;0.10;;;;;;;21.51;19.52;101378.88;5099357;28;20032;-70
2022/03/24 09:18:06;;;;;;;0.10;0.10;;;;;;;20.82;20.09;101372.47;5098878;28;20039;-73
2022/03/24 09:20:35;;;;;;;0.10;0.10;;;;;;;21.28;19.94;101371.63;5098889;28;20070;-70
2022/03/24 09:23:01;;;;;;;0.10;0.10;;;;;;;21.36;20.23;101364.78;5098495;28;20147;-69
2022/03/24 09:25:27;;;;;;;0.10;0.10;;;;;;;21.97;19.21;101371.00;5099027;28;20027;-71
2022/03/24 09:27:53;;;;;;;0.20;0.20;;;;;;;22.79;18.82;101383.03;5098918;28;20030;-70
2022/03/24 09:30:24;;;;;;;0.10;0.10;;;;;;;22.93;18.73;101375.22;5098927;28;20059;-71
2022/03/24 09:32:51;;;;;;;0.10;0.10;;;;;;;22.97;19.06;101372.38;5097717;28;20055;-70
2022/03/24 09:35:17;;;;;;;0.10;0.10;;;;;;;22.48;20.07;101380.84;5098509;28;20032;-71
2022/03/24 09:37:45;;;;;;;0.10;0.10;;;;;;;22.72;20.16;101378.22;5098521;28;20096;-71
2022/03/24 09:40:17;;;;;;;0.10;0.10;;;;;;;23.10;19.85;101376.28;5099304;28;20020;-71
2022/03/24 09:42:45;;;;;;;0.10;0.10;;;;;;;24.09;18.86;101376.38;5098759;28;20040;-71
2022/03/24 09:45:12;;;;;;;0.10;0.10;;;;;;;24.35;18.83;101374.81;5098852;28;20377;-71
2022/03/24 09:47:38;;;;;;;0.10;0.10;;;;;;;24.91;18.85;101368.63;5098339;28;20031;-71
2022/03/24 09:50:09;;;;;;;0.10;0.10;;;;;;;25.21;18.12;101367.69;5098271;28;20031;-71
2022/03/24 09:52:34;;;;;;;0.10;0.10;;;;;;;25.06;18.58;101367.16;5116730;28;20035;-70
2022/03/24 09:55:04;;;;;;;0.10;0.10;;;;;;;23.71;19.99;101369.97;5097469;28;20599;-71
2022/03/24 09:57:29;;;;;;;0.10;0.10;;;;;;;23.49;20.52;101364.53;5098037;28;20032;-71
2022/03/24 10:00:01;;;;;;;0.10;0.10;;;;;;;22.64;21.19;101368.19;5097923;28;20093;-71
2022/03/24 10:02:30;;;;;;;0.10;0.10;;;;;;;23.21;21.35;101376.97;5098175;28;20126;-70
2022/03/24 10:05:02;;;;;;;0.10;0.10;;;;;;;23.45;21.06;101368.63;5097890;28;20034;-72
2022/03/24 10:07:48;;;;;;;0.10;0.10;;;;;;;23.07;21.70;101370.66;5081441;28;20032;-70
2022/03/24 10:10:27;;;;;;;0.10;0.10;;;;;;;22.87;21.61;101368.38;5096816;28;20031;-70
2022/03/24 10:12:56;;;;;;;0.10;0.10;;;;;;;22.26;22.24;101361.53;5098101;28;20538;-70
2022/03/24 10:15:25;;;;;;;0.10;0.10;;;;;;;22.40;22.05;101364.28;5097713;28;20043;-69
2022/03/24 10:17:53;;;;;;;0.13;0.13;;;;;;;22.09;21.87;101357.56;5097721;28;20027;-70
2022/03/24 10:20:22;;;;;;;0.20;0.20;;;;;;;23.10;21.00;101358.44;5081611;28;20130;-71
2022/03/24 10:23:00;;;;;;;0.10;0.10;;;;;;;22.84;21.13;101357.84;5094247;28;20051;-70
2022/03/24 10:25:32;;;;;;;0.15;0.15;;;;;;;23.04;20.98;101360.13;5094748;28;20111;-71
2022/03/24 10:28:08;;;;;;;0.10;0.10;;;;;;;22.93;20.99;101358.22;5094148;28;20466;-70
2022/03/24 10:30:54;;;;;;;0.10;0.10;;;;;;;22.79;21.77;101357.50;5094574;28;20486;-71
2022/03/24 10:33:31;;;;;;;0.10;0.10;;;;;;;22.90;21.81;101349.72;5095154;28;20039;-72
2022/03/24 10:36:12;;;;;;;0.15;0.15;;;;;;;22.78;21.67;101342.50;5093951;28;20059;-72
2022/03/24 10:38:43;;;;;;;0.10;0.10;;;;;;;22.20;22.13;101339.28;5094375;28;20032;-72
2022/03/24 10:41:28;;;;;;;0.17;0.17;;;;;;;22.53;21.80;101339.06;5093759;28;20115;-72
2022/03/24 10:43:58;;;;;;;0.10;0.10;;;;;;;22.03;22.67;101342.22;5092767;28;20058;-70
2022/03/24 10:46:31;;;;;;;0.10;0.10;;;;;;;22.55;22.78;101337.44;5095673;28;20032;-71
2022/03/24 10:49:18;;;;;;;0.10;0.10;;;;;;;23.26;21.77;101336.78;5093487;28;20073;-71
2022/03/24 10:51:47;;;;;;;0.10;0.10;;;;;;;22.88;22.82;101335.16;5094227;28;20082;-71
2022/03/24 10:54:19;;;;;;;0.10;0.10;;;;;;;22.66;22.78;101331.69;5093638;28;20025;-72
2022/03/24 10:56:52;;;;;;;0.10;0.10;;;;;;;22.97;22.26;101322.09;5094156;28;20028;-71
2022/03/24 10:59:19;;;;;;;0.10;0.10;;;;;;;22.42;22.76;101325.78;5093970;28;20024;-71
2022/03/24 11:01:47;;;;;;;0.10;0.10;;;;;;;22.47;21.91;101327.38;5093451;28;20031;-71
2022/03/24 11:04:18;;;;;;;0.10;0.10;;;;;;;22.68;21.48;101321.50;5093747;28;20115;-71
2022/03/24 11:06:51;;;;;;;0.10;0.10;;;;;;;22.81;21.59;101326.69;5094007;28;20035;-70
2022/03/24 11:09:29;;;;;;;0.10;0.10;;;;;;;22.92;21.54;101319.72;5093293;28;20024;-70
2022/03/24 11:12:24;;;;;;;0.10;0.10;;;;;;;23.30;21.73;101318.91;5077135;28;20480;-71
2022/03/24 11:15:19;;;;;;;0.10;0.10;;;;;;;23.27;21.82;101314.88;5093291;28;20051;-71
2022/03/24 11:17:46;;;;;;;0.10;0.10;;;;;;;23.46;21.70;101319.91;5091420;28;20043;-71
2022/03/24 11:20:42;;;;;;;0.10;0.10;;;;;;;22.18;24.09;101315.44;5093281;28;20035;-72
2022/03/24 11:23:31;;;;;;;0.10;0.10;;;;;;;21.89;24.90;101304.28;5092104;28;20040;-72
2022/03/24 11:25:57;;;;;;;0.10;0.10;;;;;;;22.32;24.36;101303.19;5092954;28;20031;-71
2022/03/24 11:28:26;;;;;;;0.10;0.10;;;;;;;21.76;25.50;101300.28;5092440;28;20035;-72
2022/03/24 11:30:52;;;;;;;0.13;0.13;;;;;;;21.64;26.46;101297.91;5092862;28;20020;-72
2022/03/24 11:33:19;;;;;;;0.10;0.10;;;;;;;21.18;27.45;101299.66;5092693;28;20071;-71
2022/03/24 11:35:45;;;;;;;0.10;0.10;;;;;;;21.66;26.50;101289.81;5092506;28;20178;-71
2022/03/24 11:38:10;;;;;;;0.10;0.10;;;;;;;21.32;27.63;101286.75;5092437;28;20107;-70
2022/03/24 11:40:40;;;;;;;0.10;0.10;;;;;;;21.17;28.33;101291.59;5092632;28;20024;-70
2022/03/24 11:43:19;;;;;;;0.10;0.10;;;;;;;20.92;31.14;101286.00;5093627;28;20039;-71
2022/03/24 11:46:10;;;;;;;0.10;0.10;;;;;;;21.27;29.55;101285.09;5092687;28;20027;-71